createdAt,value
2018-04-23T00:00:55.513Z,34.80
2018-04-23T00:01:55.499Z,32.70
2018-04-23T00:02:55.481Z,31.80
2018-04-23T00:03:55.472Z,32.30
2018-04-23T00:04:55.454Z,33.10
2018-04-23T00:05:55.441Z,32.30
2018-04-23T00:06:55.424Z,33.00
2018-04-23T00:07:55.409Z,32.00
2018-04-23T00:08:55.394Z,35.50
2018-04-23T00:09:55.382Z,36.70
2018-04-23T00:10:55.369Z,34.80
2018-04-23T00:11:55.353Z,37.50
2018-04-23T00:12:55.339Z,36.00
2018-04-23T00:13:55.333Z,36.80
2018-04-23T00:14:55.315Z,39.70
2018-04-23T00:15:55.303Z,38.00
2018-04-23T00:16:55.282Z,36.60
2018-04-23T00:17:55.267Z,36.20
2018-04-23T00:18:55.252Z,34.40
2018-04-23T00:19:55.239Z,35.90
2018-04-23T00:20:55.230Z,34.10
2018-04-23T00:21:55.215Z,35.40
2018-04-23T00:22:55.197Z,34.50
2018-04-23T00:23:55.182Z,35.20
2018-04-23T00:24:55.171Z,34.90
2018-04-23T00:25:55.153Z,33.50
2018-04-23T00:26:55.137Z,36.90
2018-04-23T00:27:55.126Z,34.10
2018-04-23T00:28:55.117Z,33.70
2018-04-23T00:29:55.111Z,34.00
2018-04-23T00:30:55.078Z,35.20
2018-04-23T00:31:55.068Z,31.60
2018-04-23T00:32:55.053Z,31.30
2018-04-23T00:33:55.040Z,30.60
2018-04-23T00:34:55.027Z,27.20
2018-04-23T00:35:55.009Z,29.50
2018-04-23T00:36:54.996Z,28.60
2018-04-23T00:37:54.982Z,26.90
2018-04-23T00:38:54.973Z,27.50
2018-04-23T00:39:54.952Z,26.80
2018-04-23T00:40:54.938Z,25.00
2018-04-23T00:41:54.924Z,24.10
2018-04-23T00:42:54.907Z,22.40
2018-04-23T00:43:54.891Z,23.40
2018-04-23T00:44:54.877Z,22.60
2018-04-23T00:45:54.868Z,22.60
2018-04-23T00:46:54.856Z,22.80
2018-04-23T00:47:54.834Z,24.20
2018-04-23T00:48:54.817Z,26.10
2018-04-23T00:49:54.803Z,23.70
2018-04-23T00:50:54.788Z,25.80
2018-04-23T00:51:54.774Z,26.70
2018-04-23T00:52:54.759Z,27.10
2018-04-23T00:53:54.741Z,26.50
2018-04-23T00:54:54.729Z,27.70
2018-04-23T00:55:54.712Z,27.00
2018-04-23T00:56:54.699Z,30.40
2018-04-23T00:57:54.688Z,28.20
2018-04-23T00:58:54.671Z,27.80
2018-04-23T00:59:54.653Z,31.00
2018-04-23T01:00:54.640Z,29.10
2018-04-23T01:01:54.632Z,30.80
2018-04-23T01:02:54.608Z,32.10
2018-04-23T01:03:54.593Z,31.70
2018-04-23T01:04:54.581Z,32.60
2018-04-23T01:05:54.568Z,31.30
2018-04-23T01:06:54.552Z,33.20
2018-04-23T01:07:54.535Z,31.80
2018-04-23T01:08:54.522Z,31.50
2018-04-23T01:09:54.504Z,32.80
2018-04-23T01:10:54.490Z,32.20
2018-04-23T01:11:54.475Z,32.60
2018-04-23T01:12:54.469Z,33.70
2018-04-23T01:13:54.451Z,34.00
2018-04-23T01:14:54.432Z,34.70
2018-04-23T01:15:54.428Z,33.50
2018-04-23T01:16:54.402Z,33.30
2018-04-23T01:17:54.388Z,34.90
2018-04-23T01:18:54.373Z,31.20
2018-04-23T01:19:54.357Z,33.50
2018-04-23T01:20:54.343Z,32.60
2018-04-23T01:21:54.331Z,32.30
2018-04-23T01:22:54.315Z,31.70
2018-04-23T01:23:54.302Z,34.30
2018-04-23T01:24:54.283Z,35.10
2018-04-23T01:25:54.274Z,30.80
2018-04-23T01:26:54.254Z,33.40
2018-04-23T01:27:54.240Z,35.50
2018-04-23T01:28:54.224Z,34.90
2018-04-23T01:29:54.212Z,33.00
2018-04-23T01:30:54.198Z,36.10
2018-04-23T01:31:54.183Z,33.70
2018-04-23T01:32:54.165Z,33.00
2018-04-23T01:33:54.158Z,34.00
2018-04-23T01:34:54.137Z,33.50
2018-04-23T01:35:54.123Z,36.00
2018-04-23T01:36:54.113Z,35.50
2018-04-23T01:37:54.092Z,33.40
2018-04-23T01:38:54.079Z,36.40
2018-04-23T01:39:54.068Z,36.50
2018-04-23T01:40:54.051Z,37.30
2018-04-23T01:41:54.085Z,36.10
2018-04-23T01:42:54.019Z,35.60
2018-04-23T01:43:54.011Z,34.90
2018-04-23T01:44:53.993Z,37.40
2018-04-23T01:45:53.985Z,36.20
2018-04-23T01:46:53.968Z,33.30
2018-04-23T01:47:53.948Z,34.60
2018-04-23T01:48:53.933Z,36.20
2018-04-23T01:49:53.921Z,35.90
2018-04-23T01:50:53.903Z,37.50
2018-04-23T01:51:53.896Z,38.90
2018-04-23T01:52:53.878Z,39.90
2018-04-23T01:53:53.862Z,36.10
2018-04-23T01:54:53.851Z,34.20
2018-04-23T01:55:53.833Z,36.10
2018-04-23T01:56:53.822Z,36.60
2018-04-23T01:57:53.804Z,36.20
2018-04-23T01:58:53.791Z,37.60
2018-04-23T01:59:53.775Z,38.70
2018-04-23T02:00:53.764Z,36.90
2018-04-23T02:01:53.744Z,37.10
2018-04-23T02:02:53.731Z,37.10
2018-04-23T02:03:53.721Z,37.80
2018-04-23T02:04:53.702Z,39.60
2018-04-23T02:05:53.688Z,40.10
2018-04-23T02:06:53.672Z,39.20
2018-04-23T02:07:53.657Z,38.80
2018-04-23T02:08:53.645Z,37.10
2018-04-23T02:09:53.632Z,37.80
2018-04-23T02:10:53.613Z,38.30
2018-04-23T02:11:53.599Z,39.90
2018-04-23T02:12:53.585Z,39.00
2018-04-23T02:13:53.576Z,41.10
2018-04-23T02:14:53.555Z,40.10
2018-04-23T02:15:53.542Z,41.70
2018-04-23T02:16:53.532Z,41.60
2018-04-23T02:17:53.518Z,41.10
2018-04-23T02:18:53.505Z,41.80
2018-04-23T02:19:53.481Z,42.50
2018-04-23T02:20:53.469Z,42.60
2018-04-23T02:21:53.466Z,43.40
2018-04-23T02:22:53.477Z,42.80
2018-04-23T02:23:53.426Z,41.00
2018-04-23T02:24:53.416Z,42.10
2018-04-23T02:25:53.401Z,42.60
2018-04-23T02:26:53.384Z,45.40
2018-04-23T02:27:53.373Z,41.40
2018-04-23T02:28:53.353Z,44.60
2018-04-23T02:29:53.337Z,43.70
2018-04-23T02:30:53.335Z,43.90
2018-04-23T02:31:53.316Z,44.30
2018-04-23T02:32:53.295Z,43.50
2018-04-23T02:33:53.279Z,44.30
2018-04-23T02:34:53.265Z,44.10
2018-04-23T02:35:53.254Z,42.00
2018-04-23T02:36:53.241Z,44.00
2018-04-23T02:37:53.224Z,44.10
2018-04-23T02:38:53.219Z,43.00
2018-04-23T02:39:53.190Z,40.90
2018-04-23T02:40:53.177Z,44.70
2018-04-23T02:41:53.163Z,44.50
2018-04-23T02:42:53.153Z,46.40
2018-04-23T02:43:53.139Z,49.00
2018-04-23T02:44:53.124Z,44.00
2018-04-23T02:45:53.106Z,47.70
2018-04-23T02:46:53.092Z,46.80
2018-04-23T02:47:53.076Z,48.20
2018-04-23T02:48:53.062Z,49.40
2018-04-23T02:49:53.050Z,50.90
2018-04-23T02:50:53.030Z,49.00
2018-04-23T02:51:53.027Z,48.80
2018-04-23T02:52:53.003Z,47.10
2018-04-23T02:53:52.987Z,49.60
2018-04-23T02:54:52.990Z,48.00
2018-04-23T02:55:52.961Z,51.20
2018-04-23T02:56:52.951Z,50.90
2018-04-23T02:57:52.936Z,55.90
2018-04-23T02:58:52.918Z,53.60
2018-04-23T02:59:52.902Z,51.40
2018-04-23T03:00:52.890Z,57.00
2018-04-23T03:01:52.873Z,54.40
2018-04-23T03:02:52.857Z,57.60
2018-04-23T03:03:52.840Z,56.30
2018-04-23T03:04:52.828Z,57.00
2018-04-23T03:05:52.813Z,57.80
2018-04-23T03:06:52.802Z,56.70
2018-04-23T03:07:52.783Z,57.80
2018-04-23T03:08:52.770Z,59.30
2018-04-23T03:09:52.753Z,58.70
2018-04-23T03:10:52.737Z,58.00
2018-04-23T03:11:52.724Z,62.70
2018-04-23T03:12:52.715Z,60.90
2018-04-23T03:13:52.695Z,58.90
2018-04-23T03:14:52.678Z,61.00
2018-04-23T03:15:52.663Z,63.60
2018-04-23T03:16:52.651Z,63.30
2018-04-23T03:17:52.633Z,62.80
2018-04-23T03:18:52.622Z,63.50
2018-04-23T03:19:52.607Z,63.10
2018-04-23T03:20:52.592Z,61.80
2018-04-23T03:21:52.579Z,64.00
2018-04-23T03:22:52.562Z,63.80
2018-04-23T03:23:52.541Z,66.60
2018-04-23T03:24:52.533Z,62.10
2018-04-23T03:25:52.519Z,64.50
2018-04-23T03:26:53.006Z,63.40
2018-04-23T03:27:52.487Z,62.00
2018-04-23T03:28:52.470Z,58.80
2018-04-23T03:29:52.461Z,58.50
2018-04-23T03:30:52.439Z,57.40
2018-04-23T03:31:52.433Z,55.40
2018-04-23T03:32:52.413Z,55.10
2018-04-23T03:33:52.401Z,56.10
2018-04-23T03:34:52.381Z,58.00
2018-04-23T03:35:52.367Z,56.70
2018-04-23T03:36:52.353Z,52.80
2018-04-23T03:37:52.336Z,50.90
2018-04-23T03:38:52.322Z,50.10
2018-04-23T03:39:52.304Z,47.40
2018-04-23T03:40:52.295Z,45.40
2018-04-23T03:41:52.284Z,44.40
2018-04-23T03:42:52.263Z,42.60
2018-04-23T03:43:52.253Z,42.70
2018-04-23T03:44:52.234Z,41.10
2018-04-23T03:45:52.218Z,41.70
2018-04-23T03:46:52.203Z,41.60
2018-04-23T03:47:52.218Z,39.80
2018-04-23T03:48:52.172Z,41.40
2018-04-23T03:49:52.159Z,39.00
2018-04-23T03:50:52.140Z,38.40
2018-04-23T03:51:52.124Z,38.50
2018-04-23T03:52:52.113Z,35.80
2018-04-23T03:53:52.101Z,38.20
2018-04-23T03:54:52.081Z,37.10
2018-04-23T03:55:52.068Z,37.70
2018-04-23T03:56:52.052Z,38.80
2018-04-23T03:57:52.038Z,38.70
2018-04-23T03:58:52.032Z,40.50
2018-04-23T03:59:52.007Z,37.00
2018-04-23T04:00:51.991Z,36.80
2018-04-23T04:01:51.976Z,39.40
2018-04-23T04:02:51.959Z,37.70
2018-04-23T04:03:51.948Z,39.60
2018-04-23T04:04:51.933Z,39.80
2018-04-23T04:05:51.920Z,39.50
2018-04-23T04:06:51.903Z,37.90
2018-04-23T04:07:51.883Z,39.10
2018-04-23T04:08:51.874Z,41.30
2018-04-23T04:09:51.863Z,41.30
2018-04-23T04:10:51.850Z,38.90
2018-04-23T04:11:51.829Z,37.40
2018-04-23T04:12:51.810Z,40.50
2018-04-23T04:13:51.798Z,40.20
2018-04-23T04:14:51.783Z,38.50
2018-04-23T04:15:51.766Z,39.00
2018-04-23T04:16:51.801Z,39.20
2018-04-23T04:17:51.736Z,37.50
2018-04-23T04:18:51.723Z,40.20
2018-04-23T04:19:51.708Z,38.90
2018-04-23T04:20:51.692Z,36.60
2018-04-23T04:21:51.674Z,38.30
2018-04-23T04:22:51.659Z,37.90
2018-04-23T04:23:51.643Z,34.80
2018-04-23T04:24:51.628Z,36.00
2018-04-23T04:25:51.613Z,34.50
2018-04-23T04:26:51.600Z,32.60
2018-04-23T04:27:51.583Z,32.80
2018-04-23T04:28:51.567Z,31.30
2018-04-23T04:29:51.558Z,31.80
2018-04-23T04:30:51.543Z,31.80
2018-04-23T04:31:51.520Z,32.60
2018-04-23T04:32:51.512Z,32.00
2018-04-23T04:33:51.494Z,30.70
2018-04-23T04:34:51.480Z,28.60
2018-04-23T04:35:51.463Z,30.90
2018-04-23T04:36:51.446Z,29.60
2018-04-23T04:37:51.434Z,30.40
2018-04-23T04:38:51.423Z,28.30
2018-04-23T04:39:51.400Z,30.40
2018-04-23T04:40:51.384Z,28.70
2018-04-23T04:41:51.377Z,29.30
2018-04-23T04:42:51.354Z,28.50
2018-04-23T04:43:51.378Z,28.30
2018-04-23T04:44:51.323Z,28.40
2018-04-23T04:45:51.314Z,27.70
2018-04-23T04:46:51.293Z,29.40
2018-04-23T04:47:51.283Z,29.00
2018-04-23T04:48:51.264Z,27.70
2018-04-23T04:49:51.253Z,29.80
2018-04-23T04:50:51.233Z,30.40
2018-04-23T04:51:51.229Z,28.00
2018-04-23T04:52:51.204Z,28.10
2018-04-23T04:53:51.192Z,29.30
2018-04-23T04:54:51.174Z,28.30
2018-04-23T04:55:51.158Z,30.90
2018-04-23T04:56:51.142Z,29.30
2018-04-23T04:57:51.125Z,28.20
2018-04-23T04:58:51.110Z,29.10
2018-04-23T04:59:51.098Z,29.50
2018-04-23T05:00:51.086Z,29.50
2018-04-23T05:01:51.071Z,30.10
2018-04-23T05:02:51.056Z,28.40
2018-04-23T05:03:51.033Z,27.70
2018-04-23T05:04:51.024Z,28.40
2018-04-23T05:05:51.012Z,30.00
2018-04-23T05:06:50.989Z,28.10
2018-04-23T05:07:50.983Z,28.80
2018-04-23T05:08:50.964Z,28.30
2018-04-23T05:09:50.948Z,27.20
2018-04-23T05:10:50.928Z,27.20
2018-04-23T05:11:50.927Z,27.00
2018-04-23T05:12:50.897Z,29.30
2018-04-23T05:13:50.885Z,27.60
2018-04-23T05:14:50.872Z,26.20
2018-04-23T05:15:50.859Z,27.60
2018-04-23T05:16:50.842Z,25.70
2018-04-23T05:17:50.828Z,27.60
2018-04-23T05:18:50.812Z,26.70
2018-04-23T05:19:50.794Z,26.10
2018-04-23T05:20:50.784Z,25.20
2018-04-23T05:21:50.766Z,26.70
2018-04-23T05:22:50.752Z,26.20
2018-04-23T05:23:50.808Z,26.70
2018-04-23T05:24:50.718Z,25.10
2018-04-23T05:25:50.704Z,23.80
2018-04-23T05:26:50.686Z,23.70
2018-04-23T05:27:50.673Z,24.80
2018-04-23T05:28:50.662Z,22.60
2018-04-23T05:29:50.645Z,23.20
2018-04-23T05:30:50.631Z,23.10
2018-04-23T05:31:50.614Z,23.80
2018-04-23T05:32:50.599Z,23.90
2018-04-23T05:33:50.583Z,23.60
2018-04-23T05:34:50.569Z,23.90
2018-04-23T05:35:50.551Z,24.40
2018-04-23T05:36:50.537Z,23.20
2018-04-23T05:37:50.534Z,22.20
2018-04-23T05:38:50.505Z,22.10
2018-04-23T05:39:50.493Z,22.40
2018-04-23T05:40:50.482Z,21.20
2018-04-23T05:41:50.463Z,19.30
2018-04-23T05:42:50.446Z,21.00
2018-04-23T05:43:50.434Z,20.40
2018-04-23T05:44:50.418Z,20.70
2018-04-23T05:45:50.402Z,21.10
2018-04-23T05:46:50.388Z,20.90
2018-04-23T05:47:50.371Z,20.30
2018-04-23T05:48:50.355Z,20.90
2018-04-23T05:49:50.340Z,19.40
2018-04-23T05:50:50.322Z,19.90
2018-04-23T05:51:50.315Z,20.60
2018-04-23T05:52:50.292Z,18.90
2018-04-23T05:53:50.283Z,20.80
2018-04-23T05:54:50.263Z,17.70
2018-04-23T05:55:50.247Z,19.90
2018-04-23T05:56:50.233Z,19.40
2018-04-23T05:57:50.221Z,19.90
2018-04-23T05:58:50.205Z,19.30
2018-04-23T05:59:50.185Z,19.60
2018-04-23T06:00:50.176Z,20.60
2018-04-23T06:01:50.162Z,19.40
2018-04-23T06:02:50.153Z,19.60
2018-04-23T06:03:50.124Z,20.00
2018-04-23T06:04:50.111Z,18.30
2018-04-23T06:05:50.104Z,19.10
2018-04-23T06:06:50.079Z,19.40
2018-04-23T06:07:50.066Z,19.40
2018-04-23T06:08:50.048Z,19.40
2018-04-23T06:09:50.032Z,17.90
2018-04-23T06:10:50.016Z,19.60
2018-04-23T06:11:50.001Z,18.00
2018-04-23T06:12:49.992Z,19.80
2018-04-23T06:13:49.982Z,18.80
2018-04-23T06:14:49.962Z,19.70
2018-04-23T06:15:49.942Z,20.20
2018-04-23T06:16:49.927Z,19.90
2018-04-23T06:17:49.912Z,19.10
2018-04-23T06:18:49.898Z,19.40
2018-04-23T06:19:49.882Z,17.70
2018-04-23T06:20:49.865Z,19.20
2018-04-23T06:21:49.851Z,18.30
2018-04-23T06:22:49.832Z,18.50
2018-04-23T06:23:49.817Z,18.20
2018-04-23T06:24:49.801Z,19.30
2018-04-23T06:25:49.789Z,19.10
2018-04-23T06:26:49.770Z,19.70
2018-04-23T06:27:49.756Z,19.00
2018-04-23T06:28:49.738Z,18.20
2018-04-23T06:29:49.724Z,19.50
2018-04-23T06:30:49.708Z,18.80
2018-04-23T06:31:49.700Z,19.10
2018-04-23T06:32:49.677Z,18.00
2018-04-23T06:33:49.663Z,18.40
2018-04-23T06:34:49.648Z,17.80
2018-04-23T06:35:49.630Z,18.70
2018-04-23T06:36:49.623Z,17.40
2018-04-23T06:37:49.599Z,19.70
2018-04-23T06:38:49.585Z,18.30
2018-04-23T06:39:49.574Z,17.50
2018-04-23T06:40:49.559Z,17.20
2018-04-23T06:41:49.537Z,16.60
2018-04-23T06:42:49.520Z,15.70
2018-04-23T06:43:49.510Z,16.90
2018-04-23T06:44:49.489Z,16.70
2018-04-23T06:45:49.483Z,16.90
2018-04-23T06:46:49.456Z,17.60
2018-04-23T06:47:49.452Z,16.20
2018-04-23T06:48:49.434Z,16.00
2018-04-23T06:49:49.421Z,16.10
2018-04-23T06:50:49.400Z,16.40
2018-04-23T06:51:49.391Z,16.30
2018-04-23T06:52:49.367Z,15.60
2018-04-23T06:53:49.362Z,16.30
2018-04-23T06:54:49.332Z,16.40
2018-04-23T06:55:49.326Z,16.00
2018-04-23T06:56:49.307Z,16.80
2018-04-23T06:57:49.291Z,15.90
2018-04-23T06:58:49.279Z,16.70
2018-04-23T06:59:49.257Z,16.40
2018-04-23T07:00:49.243Z,16.80
2018-04-23T07:01:49.252Z,16.90
2018-04-23T07:02:49.222Z,16.90
2018-04-23T07:03:49.197Z,16.90
2018-04-23T07:04:49.230Z,16.60
2018-04-23T07:05:49.166Z,16.10
2018-04-23T07:06:49.151Z,16.80
2018-04-23T07:07:49.136Z,16.10
2018-04-23T07:08:49.120Z,16.40
2018-04-23T07:09:49.101Z,16.10
2018-04-23T07:10:49.089Z,15.30
2018-04-23T07:11:49.073Z,15.60
2018-04-23T07:12:49.057Z,15.50
2018-04-23T07:13:49.041Z,15.30
2018-04-23T07:14:49.030Z,16.70
2018-04-23T07:15:49.008Z,15.00
2018-04-23T07:16:48.992Z,15.00
2018-04-23T07:17:48.986Z,16.60
2018-04-23T07:18:48.962Z,15.50
2018-04-23T07:19:48.946Z,15.30
2018-04-23T07:20:48.930Z,15.00
2018-04-23T07:21:48.921Z,15.60
2018-04-23T07:22:48.898Z,14.30
2018-04-23T07:23:48.891Z,16.00
2018-04-23T07:24:48.868Z,15.40
2018-04-23T07:25:48.856Z,14.40
2018-04-23T07:26:48.841Z,16.70
2018-04-23T07:27:48.822Z,14.80
2018-04-23T07:28:48.816Z,14.80
2018-04-23T07:29:48.804Z,14.80
2018-04-23T07:30:48.781Z,14.60
2018-04-23T07:31:48.763Z,15.60
2018-04-23T07:32:48.745Z,14.80
2018-04-23T07:33:48.731Z,15.80
2018-04-23T07:34:48.739Z,14.30
2018-04-23T07:35:48.704Z,14.40
2018-04-23T07:36:48.683Z,14.30
2018-04-23T07:37:48.672Z,14.70
2018-04-23T07:38:48.652Z,14.00
2018-04-23T07:39:48.640Z,14.10
2018-04-23T07:40:48.631Z,14.20
2018-04-23T07:41:48.610Z,13.20
2018-04-23T07:42:48.594Z,14.60
2018-04-23T07:43:48.579Z,14.00
2018-04-23T07:44:48.563Z,14.40
2018-04-23T07:45:48.546Z,14.00
2018-04-23T07:46:48.530Z,14.30
2018-04-23T07:47:48.520Z,14.00
2018-04-23T07:48:48.502Z,14.20
2018-04-23T07:49:48.481Z,12.80
2018-04-23T07:50:48.467Z,14.50
2018-04-23T07:51:48.455Z,14.20
2018-04-23T07:52:48.436Z,14.20
2018-04-23T07:53:48.421Z,15.00
2018-04-23T07:54:48.404Z,14.40
2018-04-23T07:55:48.389Z,14.80
2018-04-23T07:56:48.374Z,13.40
2018-04-23T07:57:48.366Z,13.30
2018-04-23T07:58:48.343Z,14.40
2018-04-23T07:59:48.331Z,14.00
2018-04-23T08:00:48.313Z,14.00
2018-04-23T08:01:48.300Z,13.90
2018-04-23T08:02:48.280Z,14.20
2018-04-23T08:03:48.273Z,13.10
2018-04-23T08:04:48.254Z,13.70
2018-04-23T08:05:48.240Z,12.60
2018-04-23T08:06:48.233Z,13.10
2018-04-23T08:07:48.207Z,13.00
2018-04-23T08:08:48.189Z,12.50
2018-04-23T08:09:48.179Z,11.90
2018-04-23T08:10:48.160Z,11.80
2018-04-23T08:11:48.145Z,11.90
2018-04-23T08:12:48.134Z,13.00
2018-04-23T08:13:48.111Z,12.40
2018-04-23T08:14:48.097Z,12.60
2018-04-23T08:15:48.089Z,11.40
2018-04-23T08:16:48.066Z,12.30
2018-04-23T08:17:48.052Z,12.50
2018-04-23T08:18:48.044Z,12.60
2018-04-23T08:19:48.118Z,13.60
2018-04-23T08:20:48.010Z,12.60
2018-04-23T08:21:47.991Z,12.60
2018-04-23T08:22:47.977Z,13.20
2018-04-23T08:23:47.966Z,12.70
2018-04-23T08:24:47.952Z,13.10
2018-04-23T08:25:47.930Z,12.80
2018-04-23T08:26:47.920Z,13.50
2018-04-23T08:27:47.908Z,12.80
2018-04-23T08:28:47.887Z,12.50
2018-04-23T08:29:47.869Z,12.60
2018-04-23T08:30:47.853Z,11.90
2018-04-23T08:31:47.850Z,11.80
2018-04-23T08:32:47.841Z,11.20
2018-04-23T08:33:47.812Z,11.10
2018-04-23T08:34:47.797Z,11.50
2018-04-23T08:35:47.782Z,12.50
2018-04-23T08:36:47.760Z,11.50
2018-04-23T08:37:47.747Z,12.30
2018-04-23T08:38:47.732Z,13.10
2018-04-23T08:39:47.723Z,11.50
2018-04-23T08:40:47.702Z,11.50
2018-04-23T08:41:47.689Z,12.80
2018-04-23T08:42:47.680Z,12.90
2018-04-23T08:43:47.680Z,12.10
2018-04-23T08:44:47.649Z,12.20
2018-04-23T08:45:47.633Z,12.30
2018-04-23T08:46:47.627Z,12.20
2018-04-23T08:47:47.610Z,12.10
2018-04-23T08:48:47.582Z,12.40
2018-04-23T08:49:47.571Z,12.60
2018-04-23T08:50:47.554Z,12.10
2018-04-23T08:51:47.545Z,11.70
2018-04-23T08:52:47.523Z,11.80
2018-04-23T08:53:47.523Z,11.70
2018-04-23T08:54:47.493Z,12.00
2018-04-23T08:55:47.502Z,11.80
2018-04-23T08:56:47.463Z,12.30
2018-04-23T08:57:47.453Z,11.90
2018-04-23T08:58:47.435Z,11.60
2018-04-23T08:59:47.420Z,12.60
2018-04-23T09:00:47.410Z,13.00
2018-04-23T09:01:47.390Z,12.30
2018-04-23T09:02:47.377Z,13.20
2018-04-23T09:03:47.363Z,12.40
2018-04-23T09:04:47.345Z,12.50
2018-04-23T09:05:47.332Z,11.30
2018-04-23T09:06:47.314Z,12.80
2018-04-23T09:07:47.307Z,11.90
2018-04-23T09:08:47.292Z,12.20
2018-04-23T09:09:47.284Z,12.60
2018-04-23T09:10:47.257Z,11.90
2018-04-23T09:11:47.269Z,11.40
2018-04-23T09:12:47.227Z,12.10
2018-04-23T09:13:47.220Z,11.70
2018-04-23T09:14:47.195Z,13.50
2018-04-23T09:15:47.183Z,12.30
2018-04-23T09:16:47.164Z,12.30
2018-04-23T09:17:47.183Z,11.30
2018-04-23T09:18:47.135Z,11.90
2018-04-23T09:19:47.123Z,12.30
2018-04-23T09:20:47.100Z,11.60
2018-04-23T09:21:47.096Z,11.30
2018-04-23T09:22:47.072Z,11.80
2018-04-23T09:23:47.068Z,11.90
2018-04-23T09:24:47.060Z,11.10
2018-04-23T09:25:47.024Z,11.10
2018-04-23T09:26:47.014Z,11.20
2018-04-23T09:27:46.998Z,10.50
2018-04-23T09:28:46.986Z,11.00
2018-04-23T09:29:46.972Z,10.60
2018-04-23T09:30:46.946Z,11.50
2018-04-23T09:31:46.934Z,10.90
2018-04-23T09:32:46.925Z,10.50
2018-04-23T09:33:46.903Z,9.80
2018-04-23T09:34:46.888Z,9.80
2018-04-23T09:35:46.872Z,9.40
2018-04-23T09:36:46.863Z,8.80
2018-04-23T09:37:46.842Z,7.50
2018-04-23T09:38:46.825Z,7.60
2018-04-23T09:39:46.818Z,8.40
2018-04-23T09:40:46.802Z,8.60
2018-04-23T09:41:46.783Z,8.00
2018-04-23T09:42:46.769Z,7.90
2018-04-23T09:43:46.757Z,8.40
2018-04-23T09:44:46.738Z,8.30
2018-04-23T09:45:46.726Z,8.00
2018-04-23T09:46:46.706Z,8.50
2018-04-23T09:47:46.693Z,8.30
2018-04-23T09:48:46.682Z,8.40
2018-04-23T09:49:46.667Z,7.70
2018-04-23T09:50:46.650Z,7.30
2018-04-23T09:51:46.633Z,7.20
2018-04-23T09:52:46.624Z,8.00
2018-04-23T09:53:46.604Z,8.30
2018-04-23T09:54:46.593Z,7.80
2018-04-23T09:55:46.574Z,8.10
2018-04-23T09:56:46.564Z,7.90
2018-04-23T09:57:46.564Z,7.90
2018-04-23T09:58:46.533Z,7.30
2018-04-23T09:59:46.524Z,7.70
2018-04-23T10:00:46.507Z,7.90
2018-04-23T10:01:46.492Z,6.40
2018-04-23T10:02:46.479Z,7.20
2018-04-23T10:03:46.463Z,6.90
2018-04-23T10:04:46.454Z,7.70
2018-04-23T10:05:46.440Z,8.20
2018-04-23T10:06:46.427Z,7.70
2018-04-23T10:07:46.406Z,8.50
2018-04-23T10:08:46.396Z,8.20
2018-04-23T10:09:46.379Z,8.20
2018-04-23T10:10:46.363Z,8.50
2018-04-23T10:11:46.353Z,8.60
2018-04-23T10:12:46.337Z,8.90
2018-04-23T10:13:46.325Z,8.70
2018-04-23T10:14:46.307Z,7.80
2018-04-23T10:15:46.294Z,8.00
2018-04-23T10:16:46.284Z,7.80
2018-04-23T10:17:46.263Z,7.40
2018-04-23T10:18:46.259Z,7.20
2018-04-23T10:19:46.242Z,7.70
2018-04-23T10:20:46.223Z,7.60
2018-04-23T10:21:46.205Z,7.70
2018-04-23T10:22:46.198Z,7.50
2018-04-23T10:23:46.186Z,7.70
2018-04-23T10:24:46.165Z,8.10
2018-04-23T10:25:46.148Z,8.40
2018-04-23T10:26:46.135Z,8.20
2018-04-23T10:27:46.116Z,8.20
2018-04-23T10:28:46.107Z,8.00
2018-04-23T10:29:46.094Z,8.30
2018-04-23T10:30:46.073Z,8.80
2018-04-23T10:31:46.067Z,8.40
2018-04-23T10:32:46.046Z,8.20
2018-04-23T10:33:46.035Z,8.00
2018-04-23T10:34:46.025Z,7.70
2018-04-23T10:35:46.003Z,7.80
2018-04-23T10:36:45.993Z,7.50
2018-04-23T10:37:45.973Z,7.10
2018-04-23T10:38:45.963Z,5.90
2018-04-23T10:39:45.947Z,6.60
2018-04-23T10:40:45.930Z,6.80
2018-04-23T10:41:45.923Z,6.70
2018-04-23T10:42:45.903Z,7.30
2018-04-23T10:43:45.888Z,7.40
2018-04-23T10:44:45.876Z,7.20
2018-04-23T10:45:45.867Z,7.40
2018-04-23T10:46:45.842Z,7.80
2018-04-23T10:47:45.835Z,7.30
2018-04-23T10:48:45.818Z,7.30
2018-04-23T10:49:45.806Z,7.30
2018-04-23T10:50:45.792Z,8.30
2018-04-23T10:51:45.770Z,8.40
2018-04-23T10:52:45.757Z,8.60
2018-04-23T10:53:45.742Z,8.80
2018-04-23T10:54:45.725Z,9.20
2018-04-23T10:55:45.712Z,9.20
2018-04-23T10:56:45.709Z,7.90
2018-04-23T10:57:45.683Z,8.10
2018-04-23T10:58:45.669Z,8.40
2018-04-23T10:59:45.665Z,7.40
2018-04-23T11:00:45.637Z,8.20
2018-04-23T11:01:45.624Z,8.70
2018-04-23T11:02:45.614Z,9.20
2018-04-23T11:03:45.598Z,8.10
2018-04-23T11:04:45.583Z,8.20
2018-04-23T11:05:45.606Z,7.30
2018-04-23T11:06:45.554Z,7.40
2018-04-23T11:07:45.538Z,7.50
2018-04-23T11:08:45.524Z,8.50
2018-04-23T11:09:45.532Z,8.70
2018-04-23T11:10:45.498Z,7.80
2018-04-23T11:11:45.479Z,8.40
2018-04-23T11:12:45.464Z,8.30
2018-04-23T11:13:45.451Z,8.40
2018-04-23T11:14:45.441Z,8.20
2018-04-23T11:15:45.441Z,8.20
2018-04-23T11:16:45.409Z,7.60
2018-04-23T11:17:45.397Z,7.20
2018-04-23T11:18:45.387Z,6.10
2018-04-23T11:19:45.375Z,6.50
2018-04-23T11:20:45.353Z,6.40
2018-04-23T11:21:45.343Z,7.50
2018-04-23T11:22:45.379Z,7.70
2018-04-23T11:23:45.310Z,7.80
2018-04-23T11:24:45.344Z,7.20
2018-04-23T11:25:45.283Z,6.90
2018-04-23T11:26:45.287Z,7.80
2018-04-23T11:27:45.264Z,7.30
2018-04-23T11:28:45.247Z,7.70
2018-04-23T11:29:45.229Z,6.60
2018-04-23T11:30:45.216Z,8.20
2018-04-23T11:31:45.207Z,6.80
2018-04-23T11:32:45.195Z,8.30
2018-04-23T11:33:45.173Z,7.60
2018-04-23T11:34:45.159Z,7.50
2018-04-23T11:35:45.151Z,6.80
2018-04-23T11:36:45.138Z,6.90
2018-04-23T11:37:45.120Z,6.40
2018-04-23T11:38:45.109Z,6.70
2018-04-23T11:39:45.095Z,7.00
2018-04-23T11:40:45.082Z,7.90
2018-04-23T11:41:45.065Z,6.50
2018-04-23T11:42:45.050Z,6.80
2018-04-23T11:43:45.036Z,6.90
2018-04-23T11:44:45.044Z,6.70
2018-04-23T11:45:45.015Z,7.30
2018-04-23T11:46:45.000Z,7.40
2018-04-23T11:47:44.979Z,7.00
2018-04-23T11:48:44.969Z,7.90
2018-04-23T11:49:44.965Z,7.60
2018-04-23T11:50:44.935Z,7.30
2018-04-23T11:51:44.925Z,8.10
2018-04-23T11:52:44.909Z,7.50
2018-04-23T11:53:44.895Z,7.30
2018-04-23T11:54:44.890Z,7.80
2018-04-23T11:55:44.866Z,8.10
2018-04-23T11:56:44.854Z,8.60
2018-04-23T11:57:44.848Z,8.90
2018-04-23T11:58:44.825Z,9.10
2018-04-23T11:59:44.816Z,8.80
2018-04-23T12:00:44.797Z,9.00
2018-04-23T12:01:44.788Z,8.60
2018-04-23T12:02:44.765Z,9.00
2018-04-23T12:03:44.756Z,8.70
2018-04-23T12:04:44.733Z,8.70
2018-04-23T12:05:44.730Z,8.90
2018-04-23T12:06:44.703Z,8.60
2018-04-23T12:07:44.694Z,8.40
2018-04-23T12:08:44.688Z,8.30
2018-04-23T12:09:44.662Z,7.80
2018-04-23T12:10:44.654Z,7.50
2018-04-23T12:11:44.637Z,7.60
2018-04-23T12:12:44.620Z,7.00
2018-04-23T12:13:44.608Z,7.60
2018-04-23T12:14:44.600Z,7.20
2018-04-23T12:15:44.578Z,7.10
2018-04-23T12:16:44.563Z,8.10
2018-04-23T12:17:44.559Z,8.30
2018-04-23T12:18:44.535Z,8.50
2018-04-23T12:19:44.522Z,8.10
2018-04-23T12:20:44.507Z,8.30
2018-04-23T12:21:44.513Z,8.90
2018-04-23T12:22:44.484Z,8.50
2018-04-23T12:23:44.464Z,9.50
2018-04-23T12:24:44.450Z,8.00
2018-04-23T12:25:44.436Z,8.50
2018-04-23T12:26:44.424Z,7.40
2018-04-23T12:27:44.413Z,8.00
2018-04-23T12:28:44.394Z,7.80
2018-04-23T12:29:44.412Z,8.60
2018-04-23T12:30:44.370Z,7.80
2018-04-23T12:31:44.354Z,8.20
2018-04-23T12:32:44.341Z,8.20
2018-04-23T12:33:44.326Z,7.40
2018-04-23T12:34:44.312Z,7.20
2018-04-23T12:35:44.302Z,7.70
2018-04-23T12:36:44.282Z,7.50
2018-04-23T12:37:44.273Z,7.30
2018-04-23T12:38:44.255Z,7.50
2018-04-23T12:39:44.254Z,7.60
2018-04-23T12:40:44.228Z,9.10
2018-04-23T12:41:44.216Z,7.70
2018-04-23T12:42:44.203Z,7.50
2018-04-23T12:43:44.189Z,7.80
2018-04-23T12:44:44.173Z,7.20
2018-04-23T12:45:44.160Z,7.80
2018-04-23T12:46:44.144Z,7.60
2018-04-23T12:47:44.130Z,8.20
2018-04-23T12:48:44.123Z,7.70
2018-04-23T12:49:44.105Z,7.70
2018-04-23T12:50:44.089Z,7.80
2018-04-23T12:51:44.078Z,8.00
2018-04-23T12:52:44.069Z,7.80
2018-04-23T12:53:44.051Z,8.10
2018-04-23T12:54:44.035Z,8.60
2018-04-23T12:55:44.017Z,7.70
2018-04-23T12:56:44.013Z,7.90
2018-04-23T12:57:43.999Z,7.80
2018-04-23T12:58:43.984Z,8.60
2018-04-23T12:59:43.965Z,8.40